Time;durP1;ratioP1;P1;durP2;ratioP2;P2;SDS_P1;SDS_P2;PMS_P1;PMS_P2;Temp;Humidity;BMP_temperature;BMP_pressure;BME280_temperature;BME280_humidity;BME280_pressure;Samples;Min_cycle;Max_cycle;Signal;HPM_P1;HPM_P2
2022/11/14 00:02:03;;;;;;;;;;;;;;;;;;5086321;28;19935;-90
2022/11/14 00:04:50;;;;;;;;;;;;;;;;;;5093108;28;19927;-92
2022/11/14 00:07:41;;;;;;;;;;;;;;;;;;5079266;28;19969;-89
2022/11/14 00:10:32;;;;;;;;;;;;;;;;;;5081463;28;19927;-90
2022/11/14 00:13:18;;;;;;;;;;;;;;;;;;5074480;28;19927;-90
2022/11/14 00:16:04;;;;;;;;;;;;;;;;;;5079699;28;19947;-90
2022/11/14 00:18:51;;;;;;;;;;;;;;;;;;5096458;28;20406;-89
2022/11/14 00:21:37;;;;;;;;;;;;;;;;;;5084679;28;19943;-89
2022/11/14 00:24:23;;;;;;;;;;;;;;;;;;5083076;28;20395;-87
2022/11/14 00:27:14;;;;;;;;;;;;;;;;;;5089356;28;19927;-90
2022/11/14 00:30:05;;;;;;;;;;;;;;;;;;5099744;28;19930;-87
2022/11/14 00:32:51;;;;;;;;;;;;;;;;;;5082636;28;20387;-90
2022/11/14 00:35:42;;;;;;;;;;;;;;;;;;5081195;28;19935;-88
2022/11/14 00:38:33;;;;;;;;;;;;;;;;;;5084898;28;19994;-89
2022/11/14 00:41:19;;;;;;;;;;;;;;;;;;5083065;28;19927;-89
2022/11/14 00:44:11;;;;;;;;;;;;;;;;;;5086315;28;19927;-89
2022/11/14 00:46:57;;;;;;;;;;;;;;;;;;5073448;28;19932;-88
2022/11/14 00:49:48;;;;;;;;;;;;;;;;;;5080545;28;19927;-87
2022/11/14 00:52:34;;;;;;;;;;;;;;;;;;5093769;28;19927;-86
2022/11/14 00:55:20;;;;;;;;;;;;;;;;;;5076125;28;19999;-86
2022/11/14 00:58:12;;;;;;;;;;;;;;;;;;5084701;28;19927;-87
2022/11/14 01:00:58;;;;;;;;;;;;;;;;;;5095375;28;19927;-87
2022/11/14 01:03:44;;;;;;;;;;;;;;;;;;5084199;28;19928;-88
2022/11/14 01:06:30;;;;;;;;;;;;;;;;;;5086011;28;19931;-87
2022/11/14 01:09:21;;;;;;;;;;;;;;;;;;5085579;28;19927;-88
2022/11/14 01:12:06;;;;;;;;;;;;;;;;;;5073694;28;20403;-89
2022/11/14 01:14:57;;;;;;;;;;;;;;;;;;5082901;28;19931;-89
2022/11/14 01:17:49;;;;;;;;;;;;;;;;;;5086142;28;19927;-90
2022/11/14 01:20:35;;;;;;;;;;;;;;;;;;5095861;28;19927;-90
2022/11/14 01:23:21;;;;;;;;;;;;;;;;;;5077113;28;19927;-87
2022/11/14 01:26:07;;;;;;;;;;;;;;;;;;5084557;28;19931;-89
2022/11/14 01:28:53;;;;;;;;;;;;;;;;;;5081145;28;20379;-92
2022/11/14 01:31:39;;;;;;;;;;;;;;;;;;5073681;28;19927;-89
2022/11/14 01:34:30;;;;;;;;;;;;;;;;;;5080137;28;19927;-89
2022/11/14 01:37:21;;;;;;;;;;;;;;;;;;5084760;28;19927;-89
2022/11/14 01:40:07;;;;;;;;;;;;;;;;;;5085629;28;19943;-88
2022/11/14 01:42:53;;;;;;;;;;;;;;;;;;5078279;28;19927;-89
2022/11/14 01:45:44;;;;;;;;;;;;;;;;;;5086751;28;19942;-89
2022/11/14 01:48:36;;;;;;;;;;;;;;;;;;5079628;28;19927;-89
2022/11/14 01:51:27;;;;;;;;;;;;;;;;;;5080031;28;19931;-89
2022/11/14 01:54:13;;;;;;;;;;;;;;;;;;5080783;28;19935;-88
2022/11/14 01:56:59;;;;;;;;;;;;;;;;;;5088465;28;19931;-89
2022/11/14 01:59:45;;;;;;;;;;;;;;;;;;5084389;28;19928;-87
2022/11/14 02:02:36;;;;;;;;;;;;;;;;;;5094760;28;20319;-90
2022/11/14 02:05:23;;;;;;;;;;;;;;;;;;5086817;28;19932;-88
2022/11/14 02:08:14;;;;;;;;;;;;;;;;;;5078422;28;19927;-87
2022/11/14 02:11:05;;;;;;;;;;;;;;;;;;5085936;28;19927;-88
2022/11/14 02:13:51;;;;;;;;;;;;;;;;;;5083803;28;19928;-91
2022/11/14 02:16:37;;;;;;;;;;;;;;;;;;5090113;28;19931;-89
2022/11/14 02:19:28;;;;;;;;;;;;;;;;;;5091064;28;19927;-88
2022/11/14 02:22:14;;;;;;;;;;;;;;;;;;5087167;28;19935;-89
2022/11/14 02:25:00;;;;;;;;;;;;;;;;;;5086119;28;19927;-88
2022/11/14 02:27:46;;;;;;;;;;;;;;;;;;5076598;28;20392;-90
2022/11/14 02:30:32;;;;;;;;;;;;;;;;;;5082397;28;19927;-90
2022/11/14 02:33:18;;;;;;;;;;;;;;;;;;5091441;28;19927;-85
2022/11/14 02:36:09;;;;;;;;;;;;;;;;;;5085266;28;19951;-89
2022/11/14 02:38:55;;;;;;;;;;;;;;;;;;5089716;28;19928;-89
2022/11/14 02:41:41;;;;;;;;;;;;;;;;;;5076379;28;19928;-89
2022/11/14 02:44:27;;;;;;;;;;;;;;;;;;5077398;28;19931;-88
2022/11/14 02:47:13;;;;;;;;;;;;;;;;;;5105966;28;19927;-84
2022/11/14 02:50:00;;;;;;;;;;;;;;;;;;5075989;28;19928;-91
2022/11/14 02:52:52;;;;;;;;;;;;;;;;;;5090039;28;20296;-91
2022/11/14 02:55:39;;;;;;;;;;;;;;;;;;5106381;28;19927;-88
2022/11/14 02:58:25;;;;;;;;;;;;;;;;;;5084768;28;19943;-88
2022/11/14 03:01:11;;;;;;;;;;;;;;;;;;5079360;28;20462;-91
2022/11/14 03:03:57;;;;;;;;;;;;;;;;;;5093174;28;20272;-89
2022/11/14 03:06:43;;;;;;;;;;;;;;;;;;5093660;28;19927;-87
2022/11/14 03:09:29;;;;;;;;;;;;;;;;;;5077542;28;19927;-91
2022/11/14 03:12:16;;;;;;;;;;;;;;;;;;5087202;28;20014;-87
2022/11/14 03:15:08;;;;;;;;;;;;;;;;;;5102723;28;20696;-89
2022/11/14 03:17:53;;;;;;;;;;;;;;;;;;5075466;28;19932;-87
2022/11/14 03:20:45;;;;;;;;;;;;;;;;;;5090113;28;19927;-91
2022/11/14 03:23:36;;;;;;;;;;;;;;;;;;5087442;28;19935;-89
2022/11/14 03:26:27;;;;;;;;;;;;;;;;;;5104016;28;19931;-88
2022/11/14 03:29:14;;;;;;;;;;;;;;;;;;5083571;28;20391;-89
2022/11/14 03:32:00;;;;;;;;;;;;;;;;;;5075347;28;19928;-85
2022/11/14 03:34:46;;;;;;;;;;;;;;;;;;5077089;28;20280;-88
2022/11/14 03:37:32;;;;;;;;;;;;;;;;;;5092776;28;19928;-87
2022/11/14 03:40:18;;;;;;;;;;;;;;;;;;5079349;28;19932;-89
2022/11/14 03:43:04;;;;;;;;;;;;;;;;;;5089359;28;20383;-89
2022/11/14 03:45:55;;;;;;;;;;;;;;;;;;5091971;28;20304;-89
2022/11/14 03:48:41;;;;;;;;;;;;;;;;;;5074685;28;19928;-89
2022/11/14 03:51:27;;;;;;;;;;;;;;;;;;5092421;28;19943;-87
2022/11/14 03:54:14;;;;;;;;;;;;;;;;;;5089735;28;19946;-88
2022/11/14 03:57:05;;;;;;;;;;;;;;;;;;5106480;28;19927;-88
2022/11/14 03:59:56;;;;;;;;;;;;;;;;;;5093895;28;19927;-87
2022/11/14 04:02:42;;;;;;;;;;;;;;;;;;5084161;28;20307;-89
2022/11/14 04:05:33;;;;;;;;;;;;;;;;;;5102000;28;19927;-87
2022/11/14 04:08:19;;;;;;;;;;;;;;;;;;5092999;28;19931;-87
2022/11/14 04:11:05;;;;;;;;;;;;;;;;;;5074592;28;19927;-88
2022/11/14 04:13:56;;;;;;;;;;;;;;;;;;5083174;28;19927;-89
2022/11/14 04:16:42;;;;;;;;;;;;;;;;;;5074586;28;19927;-89
2022/11/14 04:19:28;;;;;;;;;;;;;;;;;;5078829;28;19947;-89
2022/11/14 04:22:15;;;;;;;;;;;;;;;;;;5083465;28;19927;-86
2022/11/14 04:25:06;;;;;;;;;;;;;;;;;;5092167;28;19927;-90
2022/11/14 04:27:51;;;;;;;;;;;;;;;;;;5083825;28;19927;-88
2022/11/14 04:30:37;;;;;;;;;;;;;;;;;;5074186;28;19927;-92
2022/11/14 04:33:23;;;;;;;;;;;;;;;;;;5074494;28;19927;-89
2022/11/14 04:36:10;;;;;;;;;;;;;;;;;;5074511;28;19927;-89
2022/11/14 04:38:56;;;;;;;;;;;;;;;;;;5077089;28;19927;-89
2022/11/14 04:41:42;;;;;;;;;;;;;;;;;;5069003;28;19935;-89
2022/11/14 04:44:28;;;;;;;;;;;;;;;;;;5074085;28;19935;-87
2022/11/14 04:47:19;;;;;;;;;;;;;;;;;;5101166;28;20287;-89
2022/11/14 04:50:05;;;;;;;;;;;;;;;;;;5087338;28;20300;-90
2022/11/14 04:52:51;;;;;;;;;;;;;;;;;;5079109;28;19943;-88
2022/11/14 04:55:42;;;;;;;;;;;;;;;;;;5080381;28;19935;-88
2022/11/14 04:58:28;;;;;;;;;;;;;;;;;;5084357;28;19927;-89
2022/11/14 05:01:19;;;;;;;;;;;;;;;;;;5080922;28;19931;-88
2022/11/14 05:04:10;;;;;;;;;;;;;;;;;;5086045;28;19927;-88
2022/11/14 05:07:01;;;;;;;;;;;;;;;;;;5096997;28;19927;-88
2022/11/14 05:09:47;;;;;;;;;;;;;;;;;;5093116;28;19927;-89
2022/11/14 05:12:33;;;;;;;;;;;;;;;;;;5079315;28;19927;-89
2022/11/14 05:15:24;;;;;;;;;;;;;;;;;;5088054;28;19931;-89
2022/11/14 05:18:10;;;;;;;;;;;;;;;;;;5088919;28;19927;-89
2022/11/14 05:20:56;;;;;;;;;;;;;;;;;;5086639;28;20395;-90
2022/11/14 05:23:42;;;;;;;;;;;;;;;;;;5072935;28;19928;-88
2022/11/14 05:26:33;;;;;;;;;;;;;;;;;;5080121;28;19927;-89
2022/11/14 05:29:19;;;;;;;;;;;;;;;;;;5077339;28;19931;-88
2022/11/14 05:32:05;;;;;;;;;;;;;;;;;;5082503;28;20553;-89
2022/11/14 05:34:51;;;;;;;;;;;;;;;;;;5080096;28;20395;-88
2022/11/14 05:37:38;;;;;;;;;;;;;;;;;;5073080;28;19995;-89
2022/11/14 05:40:24;;;;;;;;;;;;;;;;;;5080207;28;19932;-89
2022/11/14 05:43:15;;;;;;;;;;;;;;;;;;5095880;28;19935;-90
2022/11/14 05:46:05;;;;;;;;;;;;;;;;;;5095110;28;19943;-90
2022/11/14 05:48:56;;;;;;;;;;;;;;;;;;5089736;28;20295;-87
2022/11/14 05:51:47;;;;;;;;;;;;;;;;;;5083705;28;19926;-90
2022/11/14 05:54:39;;;;;;;;;;;;;;;;;;5104133;28;19942;-90
2022/11/14 05:57:25;;;;;;;;;;;;;;;;;;5076891;28;19927;-88
2022/11/14 06:00:10;;;;;;;;;;;;;;;;;;5088881;28;20288;-89
2022/11/14 06:02:57;;;;;;;;;;;;;;;;;;5085427;28;19927;-89
2022/11/14 06:05:48;;;;;;;;;;;;;;;;;;5096379;28;19927;-87
2022/11/14 06:08:34;;;;;;;;;;;;;;;;;;5094927;28;20386;-87
2022/11/14 06:11:20;;;;;;;;;;;;;;;;;;5093244;28;19931;-88
2022/11/14 06:14:06;;;;;;;;;;;;;;;;;;5093310;28;20276;-90
2022/11/14 06:16:57;;;;;;;;;;;;;;;;;;5093612;28;19943;-89
2022/11/14 06:19:43;;;;;;;;;;;;;;;;;;5087802;28;19931;-91
2022/11/14 06:22:34;;;;;;;;;;;;;;;;;;5092367;28;19927;-90
2022/11/14 06:25:21;;;;;;;;;;;;;;;;;;5095124;28;19927;-88
2022/11/14 06:28:12;;;;;;;;;;;;;;;;;;5097003;28;19927;-88
2022/11/14 06:30:58;;;;;;;;;;;;;;;;;;5097566;28;19927;-88
2022/11/14 06:33:45;;;;;;;;;;;;;;;;;;5091142;28;19927;-90
2022/11/14 06:36:31;;;;;;;;;;;;;;;;;;5088358;28;19926;-87
2022/11/14 06:39:17;;;;;;;;;;;;;;;;;;5094362;28;20814;-89
2022/11/14 06:42:03;;;;;;;;;;;;;;;;;;5081280;28;19927;-88
2022/11/14 06:44:49;;;;;;;;;;;;;;;;;;5095121;28;19927;-91
2022/11/14 06:47:40;;;;;;;;;;;;;;;;;;5091065;28;19931;-89
2022/11/14 06:50:31;;;;;;;;;;;;;;;;;;5103167;28;19931;-88
2022/11/14 06:53:17;;;;;;;;;;;;;;;;;;5094767;28;19974;-89
2022/11/14 06:56:03;;;;;;;;;;;;;;;;;;5090289;28;19934;-86
2022/11/14 06:58:49;;;;;;;;;;;;;;;;;;5098790;28;19927;-87
2022/11/14 07:01:34;;;;;;;;;;;;;;;;;;5082341;28;19948;-89
2022/11/14 07:04:20;;;;;;;;;;;;;;;;;;5094453;28;19931;-88
2022/11/14 07:07:12;;;;;;;;;;;;;;;;;;5094903;28;19935;-90
2022/11/14 07:09:58;;;;;;;;;;;;;;;;;;5095774;28;19943;-89
2022/11/14 07:12:43;;;;;;;;;;;;;;;;;;5104216;28;19930;-87
2022/11/14 07:15:29;;;;;;;;;;;;;;;;;;5091273;28;19927;-86
2022/11/14 07:18:15;;;;;;;;;;;;;;;;;;5095660;28;19943;-88
2022/11/14 07:21:07;;;;;;;;;;;;;;;;;;5084920;28;20414;-91
2022/11/14 07:23:53;;;;;;;;;;;;;;;;;;5092831;28;19927;-89
2022/11/14 07:26:39;;;;;;;;;;;;;;;;;;5090879;28;19927;-89
2022/11/14 07:29:26;;;;;;;;;;;;;;;;;;5098694;28;20002;-88
2022/11/14 07:32:17;;;;;;;;;;;;;;;;;;5093872;28;19927;-89
2022/11/14 07:35:03;;;;;;;;;;;;;;;;;;5092530;28;19927;-89
2022/11/14 07:37:54;;;;;;;;;;;;;;;;;;5092191;28;19927;-90
2022/11/14 07:40:45;;;;;;;;;;;;;;;;;;5105363;28;19926;-90
2022/11/14 07:43:31;;;;;;;;;;;;;;;;;;5094976;28;19930;-88
2022/11/14 07:46:22;;;;;;;;;;;;;;;;;;5094033;28;19928;-89
2022/11/14 07:49:09;;;;;;;;;;;;;;;;;;5090648;28;20478;-87
2022/11/14 07:51:54;;;;;;;;;;;;;;;;;;5087271;28;19927;-88
2022/11/14 07:54:41;;;;;;;;;;;;;;;;;;5096499;28;20295;-90
2022/11/14 07:57:27;;;;;;;;;;;;;;;;;;5089104;28;19927;-88
2022/11/14 08:00:18;;;;;;;;;;;;;;;;;;5100585;28;19934;-89
2022/11/14 08:03:09;;;;;;;;;;;;;;;;;;5098914;28;19927;-86
2022/11/14 08:05:55;;;;;;;;;;;;;;;;;;5090893;28;20382;-87
2022/11/14 08:08:41;;;;;;;;;;;;;;;;;;5079253;28;20004;-88
2022/11/14 08:11:47;;;;;;;;;;;;;;;;;;5101262;28;19927;-88
2022/11/14 08:14:33;;;;;;;;;;;;;;;;;;5087008;28;20383;-89
2022/11/14 08:17:19;;;;;;;;;;;;;;;;;;5093486;28;19927;-88
2022/11/14 08:20:05;;;;;;;;;;;;;;;;;;5103310;28;19926;-89
2022/11/14 08:22:51;;;;;;;;;;;;;;;;;;5089030;28;19932;-91
2022/11/14 08:25:37;;;;;;;;;;;;;;;;;;5079165;28;19931;-90
2022/11/14 08:28:23;;;;;;;;;;;;;;;;;;5079726;28;19943;-88
2022/11/14 08:31:10;;;;;;;;;;;;;;;;;;5082970;28;19927;-88
2022/11/14 08:34:00;;;;;;;;;;;;;;;;;;5096671;28;19942;-89
2022/11/14 08:36:47;;;;;;;;;;;;;;;;;;5088182;28;19995;-89
2022/11/14 08:39:38;;;;;;;;;;;;;;;;;;5077702;28;20351;-87
2022/11/14 08:42:24;;;;;;;;;;;;;;;;;;5091699;28;19935;-88
2022/11/14 08:45:10;;;;;;;;;;;;;;;;;;5063732;28;19932;-89
2022/11/14 08:47:56;;;;;;;;;;;;;;;;;;5071816;28;19935;-86
2022/11/14 08:50:47;;;;;;;;;;;;;;;;;;5068615;28;19935;-86
2022/11/14 08:53:34;;;;;;;;;;;;;;;;;;5074542;28;19935;-87
2022/11/14 08:56:20;;;;;;;;;;;;;;;;;;5069976;28;20967;-86
2022/11/14 08:59:11;;;;;;;;;;;;;;;;;;5063689;28;20293;-86
2022/11/14 09:01:57;;;;;;;;;;;;;;;;;;5067728;28;19935;-86
2022/11/14 09:04:43;;;;;;;;;;;;;;;;;;5071144;28;19939;-88
2022/11/14 09:07:35;;;;;;;;;;;;;;;;;;5082322;28;21264;-89
2022/11/14 09:10:21;;;;;;;;;;;;;;;;;;5070737;28;20624;-88
2022/11/14 09:13:07;;;;;;;;;;;;;;;;;;5066184;28;19939;-86
2022/11/14 09:15:53;;;;;;;;;;;;;;;;;;5068455;28;19935;-86
2022/11/14 09:18:39;;;;;;;;;;;;;;;;;;5064548;28;19939;-84
2022/11/14 09:21:30;;;;;;;;;;;;;;;;;;5069395;28;19927;-87
2022/11/14 09:24:16;;;;;;;;;;;;;;;;;;5067419;28;20624;-86
2022/11/14 09:27:08;;;;;;;;;;;;;;;;;;5070252;28;20600;-88
2022/11/14 09:29:59;;;;;;;;;;;;;;;;;;5075996;28;19939;-85
2022/11/14 09:32:45;;;;;;;;;;;;;;;;;;5066673;28;19957;-90
2022/11/14 09:35:36;;;;;;;;;;;;;;;;;;5069750;28;19930;-86
2022/11/14 09:38:23;;;;;;;;;;;;;;;;;;5058953;28;20003;-88
2022/11/14 09:41:09;;;;;;;;;;;;;;;;;;5062935;28;19933;-87
2022/11/14 09:44:00;;;;;;;;;;;;;;;;;;5071546;28;19987;-85
2022/11/14 09:46:46;;;;;;;;;;;;;;;;;;5069808;28;19935;-91
2022/11/14 09:49:32;;;;;;;;;;;;;;;;;;5072436;28;19935;-84
2022/11/14 09:52:24;;;;;;;;;;;;;;;;;;5082403;28;21273;-86
2022/11/14 09:55:15;;;;;;;;;;;;;;;;;;5064791;28;20402;-87
2022/11/14 09:58:01;;;;;;;;;;;;;;;;;;5058677;28;20013;-86
2022/11/14 10:00:47;;;;;;;;;;;;;;;;;;5056166;28;19935;-86
2022/11/14 10:03:39;;;;;;;;;;;;;;;;;;5070836;28;20005;-85
2022/11/14 10:06:30;;;;;;;;;;;;;;;;;;5071635;28;19951;-84
2022/11/14 10:09:21;;;;;;;;;;;;;;;;;;5070434;28;19935;-84
2022/11/14 10:12:08;;;;;;;;;;;;;;;;;;5059452;28;19937;-87
2022/11/14 10:14:54;;;;;;;;;;;;;;;;;;5061285;28;19943;-85
2022/11/14 10:17:40;;;;;;;;;;;;;;;;;;5065111;28;20718;-82
2022/11/14 10:20:26;;;;;;;;;;;;;;;;;;5059782;28;19935;-85
2022/11/14 10:23:12;;;;;;;;;;;;;;;;;;5063242;28;19942;-87
2022/11/14 10:25:58;;;;;;;;;;;;;;;;;;5062794;28;20501;-87
2022/11/14 10:28:44;;;;;;;;;;;;;;;;;;5059173;28;19939;-88
2022/11/14 10:31:36;;;;;;;;;;;;;;;;;;5076038;28;19935;-88
2022/11/14 10:34:27;;;;;;;;;;;;;;;;;;5073037;28;19939;-83
2022/11/14 10:37:13;;;;;;;;;;;;;;;;;;5072844;28;19950;-86
2022/11/14 10:39:59;;;;;;;;;;;;;;;;;;5064356;28;19951;-82
2022/11/14 10:42:50;;;;;;;;;;;;;;;;;;5068365;28;19935;-89
2022/11/14 10:45:36;;;;;;;;;;;;;;;;;;5063670;28;19961;-87
2022/11/14 10:48:22;;;;;;;;;;;;;;;;;;5058678;28;19935;-85
2022/11/14 10:51:08;;;;;;;;;;;;;;;;;;5058470;28;19939;-87
2022/11/14 10:54:00;;;;;;;;;;;;;;;;;;5073060;28;20399;-84
2022/11/14 10:56:51;;;;;;;;;;;;;;;;;;5069596;28;19931;-83
2022/11/14 10:59:37;;;;;;;;;;;;;;;;;;5063179;28;19950;-86
2022/11/14 11:02:23;;;;;;;;;;;;;;;;;;5070603;28;19939;-87
2022/11/14 11:05:09;;;;;;;;;;;;;;;;;;5067584;28;19947;-87
2022/11/14 11:14:08;;;;;;;;;;;;;;;;;;5065665;28;19942;-86
2022/11/14 11:17:00;;;;;;;;;;;;;;;;;;5075038;28;20003;-87
2022/11/14 11:19:51;;;;;;;;;;;;;;;;;;5072352;28;19935;-86
2022/11/14 11:22:37;;;;;;;;;;;;;;;;;;5067871;28;19927;-90
2022/11/14 11:25:28;;;;;;;;;;;;;;;;;;5074548;28;21483;-86
2022/11/14 11:28:19;;;;;;;;;;;;;;;;;;5070790;28;19998;-85
2022/11/14 11:31:05;;;;;;;;;;;;;;;;;;5074132;28;19935;-90
2022/11/14 11:33:57;;;;;;;;;;;;;;;;;;5069725;28;19947;-85
2022/11/14 11:36:48;;;;;;;;;;;;;;;;;;5075673;28;19935;-84
2022/11/14 11:39:39;;;;;;;;;;;;;;;;;;5078705;28;19935;-86
2022/11/14 11:42:30;;;;;;;;;;;;;;;;;;5074012;28;20733;-82
2022/11/14 11:45:22;;;;;;;;;;;;;;;;;;5080764;28;19935;-89
2022/11/14 11:48:13;;;;;;;;;;;;;;;;;;5075955;28;19935;-81
2022/11/14 11:51:05;;;;;;;;;;;;;;;;;;5069697;28;19948;-89
2022/11/14 11:53:52;;;;;;;;;;;;;;;;;;5070177;28;19939;-88
2022/11/14 11:56:43;;;;;;;;;;;;;;;;;;5074064;28;19938;-87
2022/11/14 11:59:32;;;;;;;;;;;;;;;;;;5064640;28;19935;-83
2022/11/14 12:02:18;;;;;;;;;;;;;;;;;;5056882;28;20300;-87
2022/11/14 12:05:04;;;;;;;;;;;;;;;;;;5068493;28;19935;-87
2022/11/14 12:07:51;;;;;;;;;;;;;;;;;;5062694;28;20300;-81
2022/11/14 12:10:37;;;;;;;;;;;;;;;;;;5065195;28;19943;-85
2022/11/14 12:13:28;;;;;;;;;;;;;;;;;;5072346;28;20390;-87
2022/11/14 12:16:14;;;;;;;;;;;;;;;;;;5074047;28;20395;-89
2022/11/14 12:19:01;;;;;;;;;;;;;;;;;;5070897;28;21214;-85
2022/11/14 12:21:47;;;;;;;;;;;;;;;;;;5064520;28;19931;-87
2022/11/14 12:24:39;;;;;;;;;;;;;;;;;;5072193;28;19951;-87
2022/11/14 12:27:25;;;;;;;;;;;;;;;;;;5074073;28;19971;-88
2022/11/14 12:30:16;;;;;;;;;;;;;;;;;;5081745;28;19939;-88
2022/11/14 12:33:02;;;;;;;;;;;;;;;;;;5064349;28;19936;-88
2022/11/14 12:35:48;;;;;;;;;;;;;;;;;;5061673;28;19932;-87
2022/11/14 12:38:39;;;;;;;;;;;;;;;;;;5055311;28;19935;-92
2022/11/14 12:41:25;;;;;;;;;;;;;;;;;;5067392;28;19938;-88
2022/11/14 12:44:11;;;;;;;;;;;;;;;;;;5064579;28;19942;-89
2022/11/14 12:47:02;;;;;;;;;;;;;;;;;;5062131;28;19940;-90
2022/11/14 12:49:55;;;;;;;;;;;;;;;;;;5088412;28;19935;-86
2022/11/14 12:52:42;;;;;;;;;;;;;;;;;;5073627;28;19935;-87
2022/11/14 12:55:29;;;;;;;;;;;;;;;;;;5072455;28;19943;-88
2022/11/14 12:58:20;;;;;;;;;;;;;;;;;;5079736;28;20053;-87
2022/11/14 13:01:06;;;;;;;;;;;;;;;;;;5074956;28;19951;-87
2022/11/14 13:03:52;;;;;;;;;;;;;;;;;;5073800;28;19933;-90
2022/11/14 13:06:38;;;;;;;;;;;;;;;;;;5069425;28;19927;-84
2022/11/14 13:09:29;;;;;;;;;;;;;;;;;;5081338;28;19935;-84
2022/11/14 13:21:46;;;;;;;;;;;;;;;;;;5071687;28;19936;-86
2022/11/14 13:24:37;;;;;;;;;;;;;;;;;;5064087;28;19927;-87
2022/11/14 13:27:29;;;;;;;;;;;;;;;;;;5062557;28;19936;-83
2022/11/14 13:30:15;;;;;;;;;;;;;;;;;;5070088;28;19935;-86
2022/11/14 13:33:06;;;;;;;;;;;;;;;;;;5068241;28;20015;-87
2022/11/14 13:35:54;;;;;;;;;;;;;;;;;;5064284;28;19935;-89
2022/11/14 13:38:45;;;;;;;;;;;;;;;;;;5075383;28;19943;-90
2022/11/14 13:41:36;;;;;;;;;;;;;;;;;;5077017;28;19982;-89
2022/11/14 13:44:27;;;;;;;;;;;;;;;;;;5073724;28;19931;-88
2022/11/14 13:47:13;;;;;;;;;;;;;;;;;;5068898;28;21070;-86
2022/11/14 13:50:05;;;;;;;;;;;;;;;;;;5076295;28;19935;-87
2022/11/14 13:52:56;;;;;;;;;;;;;;;;;;5070085;28;19939;-88
2022/11/14 13:55:47;;;;;;;;;;;;;;;;;;5073589;28;19935;-85
2022/11/14 13:58:38;;;;;;;;;;;;;;;;;;5068621;28;20367;-87
2022/11/14 14:01:24;;;;;;;;;;;;;;;;;;5071360;28;19935;-84
2022/11/14 14:04:16;;;;;;;;;;;;;;;;;;5078578;28;19935;-89
2022/11/14 14:07:08;;;;;;;;;;;;;;;;;;5080913;28;19935;-86
2022/11/14 14:09:54;;;;;;;;;;;;;;;;;;5072461;28;19934;-85
2022/11/14 14:12:40;;;;;;;;;;;;;;;;;;5076664;28;19935;-89
2022/11/14 14:15:27;;;;;;;;;;;;;;;;;;5076057;28;19938;-88
2022/11/14 14:18:13;;;;;;;;;;;;;;;;;;5069423;28;19926;-89
2022/11/14 14:20:59;;;;;;;;;;;;;;;;;;5073677;28;19935;-88
2022/11/14 14:23:46;;;;;;;;;;;;;;;;;;5070888;28;19935;-88
2022/11/14 14:26:32;;;;;;;;;;;;;;;;;;5070982;28;19928;-88
2022/11/14 14:29:18;;;;;;;;;;;;;;;;;;5068023;28;20300;-90
2022/11/14 14:32:04;;;;;;;;;;;;;;;;;;5070830;28;19939;-87
2022/11/14 14:34:52;;;;;;;;;;;;;;;;;;5073465;28;20539;-88
2022/11/14 14:37:38;;;;;;;;;;;;;;;;;;5063498;28;19935;-86
2022/11/14 14:40:25;;;;;;;;;;;;;;;;;;5074934;28;19935;-88
2022/11/14 14:43:11;;;;;;;;;;;;;;;;;;5072743;28;19934;-87
2022/11/14 14:45:57;;;;;;;;;;;;;;;;;;5077716;28;20288;-87
2022/11/14 14:48:44;;;;;;;;;;;;;;;;;;5074785;28;20508;-88
2022/11/14 14:51:35;;;;;;;;;;;;;;;;;;5070919;28;20028;-87
2022/11/14 14:54:21;;;;;;;;;;;;;;;;;;5075773;28;20435;-88
2022/11/14 14:57:07;;;;;;;;;;;;;;;;;;5069422;28;19927;-87
2022/11/14 14:59:54;;;;;;;;;;;;;;;;;;5066141;28;19935;-86
2022/11/14 15:02:40;;;;;;;;;;;;;;;;;;5081140;28;19935;-87
2022/11/14 15:05:26;;;;;;;;;;;;;;;;;;5068207;28;19951;-88
2022/11/14 15:08:12;;;;;;;;;;;;;;;;;;5063810;28;20615;-88
2022/11/14 15:11:04;;;;;;;;;;;;;;;;;;5089146;28;20403;-86
2022/11/14 15:13:50;;;;;;;;;;;;;;;;;;5068691;28;19932;-88
2022/11/14 15:16:41;;;;;;;;;;;;;;;;;;5073562;28;19936;-88
2022/11/14 15:19:27;;;;;;;;;;;;;;;;;;5067235;28;19935;-87
2022/11/14 15:22:14;;;;;;;;;;;;;;;;;;5078697;28;19927;-90
2022/11/14 15:25:00;;;;;;;;;;;;;;;;;;5068981;28;19935;-87
2022/11/14 15:27:46;;;;;;;;;;;;;;;;;;5073356;28;19939;-86
2022/11/14 15:30:38;;;;;;;;;;;;;;;;;;5071481;28;20724;-89
2022/11/14 15:33:29;;;;;;;;;;;;;;;;;;5078337;28;20484;-89
2022/11/14 15:36:16;;;;;;;;;;;;;;;;;;5070367;28;19935;-87
2022/11/14 15:39:02;;;;;;;;;;;;;;;;;;5071780;28;20998;-87
2022/11/14 15:41:49;;;;;;;;;;;;;;;;;;5081123;28;20323;-88
2022/11/14 15:44:35;;;;;;;;;;;;;;;;;;5067760;28;19939;-88
2022/11/14 15:47:21;;;;;;;;;;;;;;;;;;5071544;28;19935;-88
2022/11/14 15:50:12;;;;;;;;;;;;;;;;;;5079761;28;19935;-89
2022/11/14 15:52:58;;;;;;;;;;;;;;;;;;5071600;28;20399;-87
2022/11/14 15:55:44;;;;;;;;;;;;;;;;;;5076589;28;19939;-88
2022/11/14 15:58:30;;;;;;;;;;;;;;;;;;5069527;28;19939;-87
2022/11/14 16:01:17;;;;;;;;;;;;;;;;;;5068382;28;19939;-87
2022/11/14 16:04:08;;;;;;;;;;;;;;;;;;5075936;28;19927;-87
2022/11/14 16:06:59;;;;;;;;;;;;;;;;;;5076086;28;19935;-86
2022/11/14 16:09:45;;;;;;;;;;;;;;;;;;5070136;28;20300;-86
2022/11/14 16:12:31;;;;;;;;;;;;;;;;;;5071294;28;20477;-86
2022/11/14 16:15:18;;;;;;;;;;;;;;;;;;5071259;28;20007;-87
2022/11/14 16:18:04;;;;;;;;;;;;;;;;;;5068099;28;19935;-87
2022/11/14 16:20:58;;;;;;;;;;;;;;;;;;5067354;28;19936;-86
2022/11/14 16:23:44;;;;;;;;;;;;;;;;;;5071655;28;21269;-86
2022/11/14 16:26:37;;;;;;;;;;;;;;;;;;5078969;28;19951;-88
2022/11/14 16:29:23;;;;;;;;;;;;;;;;;;5066597;28;19934;-88
2022/11/14 16:32:09;;;;;;;;;;;;;;;;;;5063303;28;19936;-87
2022/11/14 16:35:00;;;;;;;;;;;;;;;;;;5073767;28;20608;-86
2022/11/14 16:37:46;;;;;;;;;;;;;;;;;;5063683;28;19936;-86
2022/11/14 16:40:37;;;;;;;;;;;;;;;;;;5071354;28;19935;-86
2022/11/14 16:43:23;;;;;;;;;;;;;;;;;;5064911;28;19936;-87
2022/11/14 16:46:09;;;;;;;;;;;;;;;;;;5067094;28;19958;-88
2022/11/14 16:48:56;;;;;;;;;;;;;;;;;;5063611;28;20391;-86
2022/11/14 16:51:42;;;;;;;;;;;;;;;;;;5070612;28;19934;-88
2022/11/14 16:54:28;;;;;;;;;;;;;;;;;;5063016;28;19937;-86
2022/11/14 16:57:14;;;;;;;;;;;;;;;;;;5067103;28;20306;-87
2022/11/14 17:00:05;;;;;;;;;;;;;;;;;;5080975;28;19966;-86
2022/11/14 17:02:56;;;;;;;;;;;;;;;;;;5076219;28;20291;-87
2022/11/14 17:05:42;;;;;;;;;;;;;;;;;;5069824;28;20280;-88
2022/11/14 17:08:29;;;;;;;;;;;;;;;;;;5068674;28;20652;-86
2022/11/14 17:11:20;;;;;;;;;;;;;;;;;;5074064;28;21245;-87
2022/11/14 17:14:06;;;;;;;;;;;;;;;;;;5068685;28;19939;-86
2022/11/14 17:16:52;;;;;;;;;;;;;;;;;;5067115;28;19935;-87
2022/11/14 17:19:44;;;;;;;;;;;;;;;;;;5068872;28;19935;-85
2022/11/14 17:22:35;;;;;;;;;;;;;;;;;;5071889;28;19939;-87
2022/11/14 17:25:21;;;;;;;;;;;;;;;;;;5065295;28;19939;-87
2022/11/14 17:28:12;;;;;;;;;;;;;;;;;;5079374;28;19931;-86
2022/11/14 17:30:58;;;;;;;;;;;;;;;;;;5074424;28;19935;-86
2022/11/14 17:33:49;;;;;;;;;;;;;;;;;;5073912;28;19935;-86
2022/11/14 17:36:35;;;;;;;;;;;;;;;;;;5070627;28;19927;-88
2022/11/14 17:39:22;;;;;;;;;;;;;;;;;;5074979;28;19927;-87
2022/11/14 17:42:13;;;;;;;;;;;;;;;;;;5076535;28;19935;-86
2022/11/14 17:45:04;;;;;;;;;;;;;;;;;;5077452;28;20636;-86
2022/11/14 17:47:55;;;;;;;;;;;;;;;;;;5079892;28;19931;-86
2022/11/14 17:50:41;;;;;;;;;;;;;;;;;;5074959;28;19934;-87
2022/11/14 17:53:27;;;;;;;;;;;;;;;;;;5070014;28;19958;-87
2022/11/14 17:56:18;;;;;;;;;;;;;;;;;;5079056;28;19935;-87
2022/11/14 17:59:09;;;;;;;;;;;;;;;;;;5074989;28;19935;-86
2022/11/14 18:01:58;;;;;;;;;;;;;;;;;;5073573;28;19931;-86
2022/11/14 18:04:45;;;;;;;;;;;;;;;;;;5070659;28;19955;-86
2022/11/14 18:07:32;;;;;;;;;;;;;;;;;;5061688;28;20396;-85
2022/11/14 18:10:18;;;;;;;;;;;;;;;;;;5070341;28;19950;-85
2022/11/14 18:13:09;;;;;;;;;;;;;;;;;;5080507;28;19939;-86
2022/11/14 18:15:55;;;;;;;;;;;;;;;;;;5072299;28;19939;-86
2022/11/14 18:18:47;;;;;;;;;;;;;;;;;;5074073;28;20592;-87
2022/11/14 18:21:38;;;;;;;;;;;;;;;;;;5076927;28;19943;-85
2022/11/14 18:24:24;;;;;;;;;;;;;;;;;;5074847;28;20399;-86
2022/11/14 18:27:11;;;;;;;;;;;;;;;;;;5068013;28;19990;-86
2022/11/14 18:29:57;;;;;;;;;;;;;;;;;;5072592;28;20315;-86
2022/11/14 18:32:48;;;;;;;;;;;;;;;;;;5078338;28;19955;-86
2022/11/14 18:35:34;;;;;;;;;;;;;;;;;;5070594;28;19939;-86
2022/11/14 18:38:20;;;;;;;;;;;;;;;;;;5067167;28;19939;-85
2022/11/14 18:41:06;;;;;;;;;;;;;;;;;;5068957;28;21608;-86
2022/11/14 18:43:57;;;;;;;;;;;;;;;;;;5076760;28;19948;-85
2022/11/14 18:46:44;;;;;;;;;;;;;;;;;;5067019;28;19939;-86
2022/11/14 18:49:30;;;;;;;;;;;;;;;;;;5066457;28;19935;-86
2022/11/14 18:52:18;;;;;;;;;;;;;;;;;;5072215;28;19927;-86
2022/11/14 18:55:09;;;;;;;;;;;;;;;;;;5078341;28;19943;-88
2022/11/14 18:57:55;;;;;;;;;;;;;;;;;;5069022;28;19991;-87
2022/11/14 19:00:46;;;;;;;;;;;;;;;;;;5071803;28;19935;-90
2022/11/14 19:03:32;;;;;;;;;;;;;;;;;;5069801;28;20473;-86
2022/11/14 19:06:23;;;;;;;;;;;;;;;;;;5077519;28;19969;-84
2022/11/14 19:09:10;;;;;;;;;;;;;;;;;;5060341;28;20756;-84
2022/11/14 19:15:01;;;;;;;;;;;;;;;;;;5070148;28;19935;-86
2022/11/14 19:17:47;;;;;;;;;;;;;;;;;;5065164;28;19927;-83
2022/11/14 19:20:38;;;;;;;;;;;;;;;;;;5069687;28;19935;-84
2022/11/14 19:23:24;;;;;;;;;;;;;;;;;;5071760;28;19935;-86
2022/11/14 19:26:10;;;;;;;;;;;;;;;;;;5070459;28;19948;-84